To NAV CANADA Home Page Login to a new session Search on AWWS site Feedback and Comments Disclaimer Vers la page française équivalente Tips FAQ What's new on the site To the Forecasts and Observations / NOTAM section To "File a Flight Plan" website Publications and other links Update of the User's profile FIC Telephone Numbers My Weather Data Folder Route Weather Data Regional Weather Data Local Weather Data To the Forecasts and Observations / NOTAM section
Request Generated 08/29/2016 at 08:48:12 UTC . Weather information available at that time is displayed.

METAR/TAF

HAVRE ST-PIERRE/QC    (show WxCam)

SPECI CYGV 290840Z AUTO 04009G15KT 2SM RA BR FEW003 BKN018 BKN023
OVC028 14/14 A2984 RMK PRESFR SLP108=
SPECI CYGV 290838Z AUTO 04010G15KT 2SM +RA BR FEW007 BKN018 BKN023
OVC029 14/14 A2985 RMK PRESFR SLP109=
SPECI CYGV 290826Z AUTO 03009KT 1 3/4SM +RA BR SCT018 BKN023 BKN030
OVC035 14/13 A2986 RMK SLP115=
SPECI CYGV 290823Z AUTO 03009KT 2SM +RA BR BKN020 BKN030 OVC035 14/13
A2987 RMK SLP116=
SPECI CYGV 290818Z AUTO 03009KT 2SM +RA BR SCT022 BKN030 OVC037 14/13
A2987 RMK SLP116=
SPECI CYGV 290803Z AUTO 05008KT 1 3/4SM +RA BR BKN032 OVC039 14/13
A2987 RMK SLP116=
METAR CYGV 290800Z AUTO 05008KT 2SM +RA BR OVC032 14/13 A2987 RMK
SLP116=
SPECI CYGV 290744Z AUTO 05007KT 2 1/2SM +RA BR BKN034 OVC043 14/13
A2988 RMK PRESFR SLP121=
SPECI CYGV 290743Z AUTO 05007KT 2 1/2SM RA BR BKN036 OVC043 14/13
A2988 RMK PRESFR SLP121=
SPECI CYGV 290710Z AUTO 06006KT 5SM RA BR SCT046 OVC075 14/14 A2990
RMK SLP127=
METAR CYGV 290700Z AUTO 06005KT 9SM -RA OVC075 14/13 A2990 RMK
SLP126=
SPECI CYGV 290650Z AUTO 10004KT 9SM -RA OVC080 14/13 A2990 RMK
SLP126=
SPECI CYGV 290635Z AUTO 13004KT 9SM OVC085 14/13 A2990 RMK SLP126=
SPECI CYGV 290619Z AUTO 13005KT 9SM -RA OVC095 14/13 A2990 RMK
SLP126=
SPECI CYGV 290614Z AUTO 12004KT 9SM OVC095 14/13 A2990 RMK SLP127=
SPECI CYGV 290604Z AUTO 14006KT 9SM -RA OVC095 14/13 A2991 RMK
SLP129=
METAR CYGV 290600Z AUTO 14005KT 9SM OVC095 14/13 A2991 RMK SLP130=

TAF CYGV 290738Z 2908/2920 08005KT P6SM -SHRA OVC030 TEMPO 2908/2910
5SM -SHRA BR BKN006 OVC015
FM291000 08012KT 3SM -RA BR OVC006 TEMPO 2910/2914 P6SM -RA
SCT006 OVC010
FM291400 02015G25KT P6SM -RA OVC020
FM291600 36015G25KT P6SM BKN060
RMK FCST BASED ON AUTO OBS. NXT FCST BY 291400Z=
Your time UTC time
Weather data provided by Environment Canada and NAV CANADA